Time;durP1;ratioP1;P1;durP2;ratioP2;P2;SDS_P1;SDS_P2;PMS_P1;PMS_P2;Temp;Humidity;BMP_temperature;BMP_pressure;BME280_temperature;BME280_humidity;BME280_pressure;Samples;Min_cycle;Max_cycle;Signal;HPM_P1;HPM_P2
2022/04/19 00:01:00;;;;;;;6.80;6.38;;;;;;;-141.48;100.00;69781.59;5180837;28;20014;-79
2022/04/19 00:03:32;;;;;;;8.57;7.93;;;;;;;-141.48;100.00;69781.59;5179995;28;20022;-79
2022/04/19 00:06:02;;;;;;;8.48;7.80;;;;;;;-141.48;100.00;69781.59;5182527;28;20053;-78
2022/04/19 00:08:34;;;;;;;8.27;7.50;;;;;;;-141.48;100.00;69781.59;5183215;28;20034;-78
2022/04/19 00:11:05;;;;;;;8.00;7.40;;;;;;;-141.48;100.00;69781.59;5181745;28;20439;-79
2022/04/19 00:13:35;;;;;;;7.85;7.30;;;;;;;-141.48;100.00;69781.59;5184033;28;20049;-79
2022/04/19 00:16:06;;;;;;;8.00;7.45;;;;;;;-141.48;100.00;69781.59;5183535;28;20029;-79
2022/04/19 00:18:36;;;;;;;12.77;8.27;;;;;;;-141.48;100.00;69781.59;5182869;28;20026;-79
2022/04/19 00:21:07;;;;;;;8.32;7.82;;;;;;;-141.48;100.00;69781.59;5183404;28;20026;-78
2022/04/19 00:23:37;;;;;;;8.82;7.97;;;;;;;-141.48;100.00;69781.59;5182477;28;20022;-77
2022/04/19 00:26:08;;;;;;;7.75;7.30;;;;;;;-141.48;100.00;69781.59;5193159;28;20026;-79
2022/04/19 00:28:38;;;;;;;7.15;6.47;;;;;;;-141.48;100.00;69781.59;5200924;28;20022;-78
2022/04/19 00:31:08;;;;;;;8.18;7.57;;;;;;;-141.48;100.00;69781.59;5200226;28;20029;-78
2022/04/19 00:33:44;;;;;;;8.50;7.93;;;;;;;-141.48;100.00;69781.59;5202902;28;20074;-78
2022/04/19 00:36:14;;;;;;;6.85;6.35;;;;;;;-141.48;100.00;69781.59;5203590;28;20093;-78
2022/04/19 00:38:44;;;;;;;10.45;9.27;;;;;;;-141.48;100.00;69781.59;5201752;28;20022;-78
2022/04/19 00:41:17;;;;;;;8.77;8.25;;;;;;;-141.48;100.00;69781.59;5203660;28;20052;-78
2022/04/19 00:43:47;;;;;;;8.40;7.65;;;;;;;-141.48;100.00;69781.59;5202138;28;20021;-78
2022/04/19 00:46:19;;;;;;;8.73;8.18;;;;;;;-141.48;100.00;69781.59;5202173;28;20641;-79
2022/04/19 00:48:49;;;;;;;9.65;8.65;;;;;;;-141.48;100.00;69781.59;5202988;28;20026;-79
2022/04/19 00:51:20;;;;;;;9.30;8.60;;;;;;;-141.48;100.00;69781.59;5203647;28;20037;-79
2022/04/19 00:53:52;;;;;;;10.45;9.52;;;;;;;-141.48;100.00;69781.59;5202348;28;20037;-78
2022/04/19 00:56:22;;;;;;;10.05;9.40;;;;;;;-141.48;100.00;69781.59;5202219;28;20032;-79
2022/04/19 00:58:54;;;;;;;9.70;8.27;;;;;;;-141.48;100.00;69781.59;5201236;28;20090;-78
2022/04/19 01:01:24;;;;;;;9.98;9.10;;;;;;;-141.48;100.00;69781.59;5200960;28;20034;-79
2022/04/19 01:03:54;;;;;;;9.43;7.53;;;;;;;-141.48;100.00;69781.59;5193685;28;20057;-79
2022/04/19 01:06:25;;;;;;;8.40;7.80;;;;;;;-141.48;100.00;69781.59;5180443;28;20026;-79
2022/04/19 01:08:55;;;;;;;16.00;7.80;;;;;;;-141.48;100.00;69781.59;5182034;28;20133;-79
2022/04/19 01:14:16;;;;;;;8.73;8.23;;;;;;;-141.48;100.00;69781.59;5182470;28;20113;-80
2022/04/19 01:16:46;;;;;;;8.65;8.07;;;;;;;-141.48;100.00;69781.59;5180260;28;20086;-79
2022/04/19 01:19:16;;;;;;;11.02;7.97;;;;;;;-141.48;100.00;69781.59;5178167;28;20065;-79
2022/04/19 01:21:54;;;;;;;8.05;7.55;;;;;;;-141.48;100.00;69781.59;5192332;28;20079;-78
2022/04/19 01:24:24;;;;;;;8.27;7.57;;;;;;;-141.48;100.00;69781.59;5203046;28;20030;-78
2022/04/19 01:26:57;;;;;;;7.78;7.28;;;;;;;-141.48;100.00;69781.59;5199507;28;20056;-79
2022/04/19 01:29:28;;;;;;;8.85;8.00;;;;;;;-141.48;100.00;69781.59;5201322;28;20030;-79
2022/04/19 01:32:01;;;;;;;8.82;8.07;;;;;;;-141.48;100.00;69781.59;5200264;28;20117;-80
2022/04/19 01:34:31;;;;;;;10.43;9.48;;;;;;;-141.48;100.00;69781.59;5198960;28;20029;-79
2022/04/19 01:37:02;;;;;;;7.95;7.30;;;;;;;-141.48;100.00;69781.59;5200796;28;20095;-78
2022/04/19 01:42:22;;;;;;;8.40;7.85;;;;;;;-141.48;100.00;69781.59;5200296;28;20030;-79
2022/04/19 01:44:53;;;;;;;8.88;8.23;;;;;;;-141.48;100.00;69781.59;5200243;28;20496;-79
2022/04/19 01:47:23;;;;;;;9.85;8.93;;;;;;;-141.48;100.00;69781.59;5200071;28;20041;-79
2022/04/19 01:49:53;;;;;;;9.57;8.68;;;;;;;-141.48;100.00;69781.59;5200406;28;20021;-79
2022/04/19 01:52:24;;;;;;;12.38;11.45;;;;;;;-141.48;100.00;69781.59;5200170;28;20045;-78
2022/04/19 01:54:54;;;;;;;10.25;9.65;;;;;;;-141.48;100.00;69781.59;5196434;28;20023;-79
2022/04/19 01:57:27;;;;;;;9.07;8.38;;;;;;;-141.48;100.00;69781.59;5179702;28;20505;-78
2022/04/19 01:59:58;;;;;;;10.55;9.88;;;;;;;-141.48;100.00;69781.59;5178754;28;20037;-81
2022/04/19 02:02:28;;;;;;;9.98;9.30;;;;;;;-141.48;100.00;69781.59;5179801;28;20018;-78
2022/04/19 02:04:59;;;;;;;9.63;9.02;;;;;;;-141.48;100.00;69781.59;5179209;28;20045;-78
2022/04/19 02:07:31;;;;;;;9.38;8.77;;;;;;;-141.48;100.00;69781.59;5199065;28;20025;-79
2022/04/19 02:10:02;;;;;;;10.52;9.55;;;;;;;-141.48;100.00;69781.59;5198227;28;20030;-78
2022/04/19 02:12:33;;;;;;;9.98;9.25;;;;;;;-141.48;100.00;69781.59;5192562;28;20026;-78
2022/04/19 02:15:04;;;;;;;10.18;9.57;;;;;;;-141.48;100.00;69781.59;5170828;28;20033;-79
2022/04/19 02:17:47;;;;;;;10.65;9.95;;;;;;;-141.48;100.00;69781.59;5181383;28;20074;-79
2022/04/19 02:20:19;;;;;;;8.65;8.25;;;;;;;-141.48;100.00;69781.59;5187184;28;20050;-80
2022/04/19 02:22:49;;;;;;;10.40;9.55;;;;;;;-141.48;100.00;69781.59;5188400;28;20086;-78
2022/04/19 02:25:19;;;;;;;10.18;9.30;;;;;;;-141.48;100.00;69781.59;5206312;28;20045;-78
2022/04/19 02:27:50;;;;;;;11.15;10.45;;;;;;;-141.48;100.00;69781.59;5206538;28;20057;-79
2022/04/19 02:30:21;;;;;;;9.52;8.80;;;;;;;-141.48;100.00;69781.59;5191371;28;20033;-77
2022/04/19 02:32:51;;;;;;;9.65;8.93;;;;;;;-141.48;100.00;69781.59;5184522;28;20030;-78
2022/04/19 02:35:23;;;;;;;10.30;9.70;;;;;;;-141.48;100.00;69781.59;5183133;28;20174;-80
2022/04/19 02:37:56;;;;;;;10.20;9.50;;;;;;;-141.48;100.00;69781.59;5176848;28;20038;-81
2022/04/19 02:40:27;;;;;;;11.55;10.80;;;;;;;-141.48;100.00;69781.59;5171372;28;20034;-79
2022/04/19 02:42:58;;;;;;;11.40;10.43;;;;;;;-141.48;100.00;69781.59;5166637;28;20045;-81
2022/04/19 02:45:28;;;;;;;10.27;9.48;;;;;;;-141.48;100.00;69781.59;5168604;28;20054;-80
2022/04/19 02:48:08;;;;;;;12.50;11.48;;;;;;;-141.48;100.00;69781.59;5170914;28;20022;-81
2022/04/19 02:50:42;;;;;;;10.68;9.85;;;;;;;-141.48;100.00;69781.59;5175884;28;20109;-81
2022/04/19 02:53:12;;;;;;;9.98;9.38;;;;;;;-141.48;100.00;69781.59;5175711;28;20018;-80
2022/04/19 02:55:43;;;;;;;11.48;10.75;;;;;;;-141.48;100.00;69781.59;5172429;28;20026;-81
2022/04/19 02:58:13;;;;;;;11.18;10.38;;;;;;;-141.48;100.00;69781.59;5172224;28;20363;-80
2022/04/19 03:00:44;;;;;;;10.55;9.85;;;;;;;-141.48;100.00;69781.59;5166366;28;20093;-79
2022/04/19 03:03:15;;;;;;;9.05;8.35;;;;;;;-141.48;100.00;69781.59;5166295;28;20438;-79
2022/04/19 03:05:45;;;;;;;10.30;9.50;;;;;;;-141.48;100.00;69781.59;5165391;28;20026;-80
2022/04/19 03:08:16;;;;;;;10.25;9.55;;;;;;;-141.48;100.00;69781.59;5165997;28;20509;-80
2022/04/19 03:10:46;;;;;;;12.75;11.85;;;;;;;-141.48;100.00;69781.59;5172540;28;20018;-79
2022/04/19 03:16:26;;;;;;;14.10;10.98;;;;;;;-141.48;100.00;69781.59;5242490;22;171497;-78
2022/04/19 03:18:56;;;;;;;12.52;11.57;;;;;;;-141.48;100.00;69781.59;5208797;28;20436;-78
2022/04/19 03:21:27;;;;;;;11.55;10.57;;;;;;;-141.48;100.00;69781.59;5210517;28;20045;-79
2022/04/19 03:29:35;;;;;;;11.70;10.82;;;;;;;-141.48;100.00;69781.59;5251151;22;20051;-60
2022/04/19 03:32:09;;;;;;;12.20;10.13;;;;;;;-141.48;100.00;69781.59;5215497;28;20470;-57
2022/04/19 03:34:39;;;;;;;13.50;11.82;;;;;;;-141.48;100.00;69781.59;5202963;28;20029;-59
2022/04/19 03:37:10;;;;;;;10.85;9.75;;;;;;;-141.48;100.00;69781.59;5186904;28;20013;-58
2022/04/19 03:39:41;;;;;;;10.75;9.85;;;;;;;-141.48;100.00;69781.59;5188295;28;20109;-59
2022/04/19 03:42:11;;;;;;;10.00;9.25;;;;;;;-141.48;100.00;69781.59;5208590;28;20052;-58
2022/04/19 03:44:42;;;;;;;14.25;11.80;;;;;;;-141.48;100.00;69781.59;5207101;28;20452;-58
2022/04/19 03:47:12;;;;;;;11.32;10.45;;;;;;;-141.48;100.00;69781.59;5207333;28;20041;-59
2022/04/19 03:49:43;;;;;;;11.27;10.50;;;;;;;-141.48;100.00;69781.59;5190277;28;20065;-58
2022/04/19 03:52:14;;;;;;;11.32;10.38;;;;;;;-141.48;100.00;69781.59;5191046;28;20494;-59
2022/04/19 03:54:44;;;;;;;11.85;10.82;;;;;;;-141.48;100.00;69781.59;5190398;28;20311;-58
2022/04/19 03:57:17;;;;;;;13.45;12.43;;;;;;;-141.48;100.00;69781.59;5190870;28;20495;-60
2022/04/19 03:59:47;;;;;;;12.45;11.45;;;;;;;-141.48;100.00;69781.59;5190497;28;20056;-57
2022/04/19 04:02:18;;;;;;;12.52;10.75;;;;;;;-141.48;100.00;69781.59;5190519;28;20049;-57
2022/04/19 04:04:49;;;;;;;10.30;9.65;;;;;;;-141.48;100.00;69781.59;5189895;28;20025;-58
2022/04/19 04:07:19;;;;;;;12.48;11.32;;;;;;;-141.48;100.00;69781.59;5208043;28;20103;-56
2022/04/19 04:09:50;;;;;;;11.93;10.90;;;;;;;-141.48;100.00;69781.59;5190405;28;20025;-59
2022/04/19 04:12:21;;;;;;;13.18;12.35;;;;;;;-141.48;100.00;69781.59;5190073;28;20477;-58
2022/04/19 04:14:52;;;;;;;12.63;11.82;;;;;;;-141.48;100.00;69781.59;5189745;28;20057;-57
2022/04/19 04:17:22;;;;;;;10.15;9.55;;;;;;;-141.48;100.00;69781.59;5190382;28;20136;-59
2022/04/19 04:19:53;;;;;;;11.98;11.15;;;;;;;-141.48;100.00;69781.59;5176218;28;20026;-58
2022/04/19 04:22:23;;;;;;;13.73;12.52;;;;;;;-141.48;100.00;69781.59;5178551;28;20029;-57
2022/04/19 04:24:54;;;;;;;13.60;12.55;;;;;;;-141.48;100.00;69781.59;5189305;28;20535;-58
2022/04/19 04:27:24;;;;;;;12.95;11.95;;;;;;;-141.48;100.00;69781.59;5206438;28;20491;-59
2022/04/19 04:29:55;;;;;;;12.95;12.18;;;;;;;-141.48;100.00;69781.59;5189812;28;20384;-56
2022/04/19 04:32:25;;;;;;;12.75;11.95;;;;;;;-141.48;100.00;69781.59;5189903;28;20026;-57
2022/04/19 04:34:56;;;;;;;14.68;13.48;;;;;;;-141.48;100.00;69781.59;5189707;28;20029;-56
2022/04/19 04:37:26;;;;;;;12.63;11.48;;;;;;;-141.48;100.00;69781.59;5207585;28;20087;-57
2022/04/19 04:39:57;;;;;;;13.93;12.82;;;;;;;-141.48;100.00;69781.59;5189721;28;20441;-59
2022/04/19 04:42:27;;;;;;;13.82;12.63;;;;;;;-141.48;100.00;69781.59;5189913;28;20037;-59
2022/04/19 04:44:58;;;;;;;12.80;11.75;;;;;;;-141.48;100.00;69781.59;5205763;28;20052;-59
2022/04/19 04:50:18;;;;;;;15.52;14.35;;;;;;;-141.48;100.00;69781.59;5218980;28;20080;-58
2022/04/19 04:52:52;;;;;;;15.70;14.15;;;;;;;-141.48;100.00;69781.59;5197187;28;20428;-57
2022/04/19 04:55:24;;;;;;;14.32;13.18;;;;;;;-141.48;100.00;69781.59;5223067;28;20028;-57
2022/04/19 04:57:58;;;;;;;15.18;13.93;;;;;;;-141.48;100.00;69781.59;5225393;28;20437;-58
2022/04/19 05:00:28;;;;;;;22.08;12.60;;;;;;;-141.48;100.00;69781.59;5209744;28;20033;-58
2022/04/19 05:03:02;;;;;;;13.98;13.07;;;;;;;-141.48;100.00;69781.59;5226707;28;20028;-59
2022/04/19 05:05:32;;;;;;;13.93;12.75;;;;;;;-141.48;100.00;69781.59;5209462;28;20052;-60
2022/04/19 05:08:03;;;;;;;12.35;11.65;;;;;;;-141.48;100.00;69781.59;5209581;28;20067;-57
2022/04/19 05:10:34;;;;;;;15.27;14.07;;;;;;;-141.48;100.00;69781.59;5226215;28;20479;-58
2022/04/19 05:13:04;;;;;;;12.73;11.88;;;;;;;-141.48;100.00;69781.59;5209892;28;20024;-57
2022/04/19 05:15:35;;;;;;;13.45;12.75;;;;;;;-141.48;100.00;69781.59;5223650;28;20025;-59
2022/04/19 05:18:05;;;;;;;14.80;13.82;;;;;;;-141.48;100.00;69781.59;5209460;28;20029;-58
2022/04/19 05:20:36;;;;;;;16.13;14.70;;;;;;;-141.48;100.00;69781.59;5183692;28;20033;-57
2022/04/19 05:23:06;;;;;;;16.45;14.93;;;;;;;-141.48;100.00;69781.59;5168678;28;20442;-57
2022/04/19 05:25:37;;;;;;;15.35;14.25;;;;;;;-141.48;100.00;69781.59;5184925;28;20033;-57
2022/04/19 05:28:07;;;;;;;15.43;13.68;;;;;;;-141.48;100.00;69781.59;5168437;28;20034;-58
2022/04/19 05:30:38;;;;;;;16.27;15.07;;;;;;;-141.48;100.00;69781.59;5168706;28;20025;-59
2022/04/19 05:33:12;;;;;;;15.63;14.40;;;;;;;-141.48;100.00;69781.59;5168430;28;20084;-56
2022/04/19 05:35:42;;;;;;;14.60;13.45;;;;;;;-141.48;100.00;69781.59;5167919;28;20055;-59
2022/04/19 05:38:13;;;;;;;15.95;14.35;;;;;;;-141.48;100.00;69781.59;5168210;28;20018;-58
2022/04/19 05:40:43;;;;;;;14.32;13.38;;;;;;;-141.48;100.00;69781.59;5184627;28;20025;-59
2022/04/19 05:43:14;;;;;;;16.75;15.35;;;;;;;-141.48;100.00;69781.59;5184305;28;20503;-60
2022/04/19 05:45:45;;;;;;;22.38;20.67;;;;;;;-141.48;100.00;69781.59;5184689;28;20433;-59
2022/04/19 05:48:16;;;;;;;16.98;15.65;;;;;;;-141.48;100.00;69781.59;5168343;28;20070;-65
2022/04/19 05:50:46;;;;;;;18.75;16.80;;;;;;;-141.48;100.00;69781.59;5184405;28;20447;-60
2022/04/19 05:53:17;;;;;;;16.30;15.18;;;;;;;-141.48;100.00;69781.59;5168097;28;20028;-60
2022/04/19 05:55:48;;;;;;;16.95;15.68;;;;;;;-141.48;100.00;69781.59;5184599;28;20052;-59
2022/04/19 05:58:18;;;;;;;16.27;15.02;;;;;;;-141.48;100.00;69781.59;5168992;28;20022;-60
2022/04/19 06:00:49;;;;;;;19.20;17.35;;;;;;;-141.48;100.00;69781.59;5184448;28;20083;-60
2022/04/19 06:06:08;;;;;;;15.65;14.57;;;;;;;-141.48;100.00;69781.59;5185714;28;20033;-60
2022/04/19 06:08:38;;;;;;;14.38;12.82;;;;;;;-141.48;100.00;69781.59;5167325;28;20380;-58
2022/04/19 06:11:12;;;;;;;19.05;15.82;;;;;;;-141.48;100.00;69781.59;5184688;28;20022;-59
2022/04/19 06:13:42;;;;;;;18.08;16.15;;;;;;;-141.48;100.00;69781.59;5167077;28;20025;-59
2022/04/19 06:16:13;;;;;;;17.00;15.43;;;;;;;-141.48;100.00;69781.59;5167156;28;20034;-59
2022/04/19 06:18:44;;;;;;;15.13;13.82;;;;;;;-141.48;100.00;69781.59;5167182;28;20026;-59
2022/04/19 06:21:14;;;;;;;17.73;15.93;;;;;;;-141.48;100.00;69781.59;5183395;28;20103;-59
2022/04/19 06:23:44;;;;;;;17.88;16.52;;;;;;;-141.48;100.00;69781.59;5166661;28;20049;-59
2022/04/19 06:26:15;;;;;;;15.43;14.23;;;;;;;-141.48;100.00;69781.59;5183545;28;20030;-59
2022/04/19 06:28:45;;;;;;;18.38;16.85;;;;;;;-141.48;100.00;69781.59;5167156;28;20396;-58
2022/04/19 06:31:16;;;;;;;17.45;16.02;;;;;;;-141.48;100.00;69781.59;5183459;28;20029;-60
2022/04/19 06:33:46;;;;;;;19.98;16.63;;;;;;;-141.48;100.00;69781.59;5166658;28;20030;-60
2022/04/19 06:36:18;;;;;;;17.50;15.95;;;;;;;-141.48;100.00;69781.59;5166954;28;20030;-59
2022/04/19 06:38:48;;;;;;;16.85;15.40;;;;;;;-141.48;100.00;69781.59;5166936;28;20451;-59
2022/04/19 06:41:19;;;;;;;15.90;14.60;;;;;;;-141.48;100.00;69781.59;5166871;28;20038;-60
2022/04/19 06:43:50;;;;;;;16.20;15.05;;;;;;;-141.48;100.00;69781.59;5166346;28;20048;-62
2022/04/19 06:46:20;;;;;;;15.93;14.68;;;;;;;-141.48;100.00;69781.59;5167212;28;20026;-59
2022/04/19 06:48:53;;;;;;;15.88;14.35;;;;;;;-141.48;100.00;69781.59;5166716;28;20407;-59
2022/04/19 06:51:25;;;;;;;17.42;15.93;;;;;;;-141.48;100.00;69781.59;5166798;28;20021;-60
2022/04/19 06:53:56;;;;;;;17.83;16.42;;;;;;;-141.48;100.00;69781.59;5182835;28;20091;-59
2022/04/19 06:56:27;;;;;;;19.17;14.80;;;;;;;-141.48;100.00;69781.59;5183367;28;20114;-60
2022/04/19 06:58:58;;;;;;;16.38;15.10;;;;;;;-141.48;100.00;69781.59;5183198;28;20029;-59
2022/04/19 07:01:29;;;;;;;18.17;16.33;;;;;;;-141.48;100.00;69781.59;5166465;28;20080;-59
2022/04/19 07:04:00;;;;;;;16.83;15.25;;;;;;;-141.48;100.00;69781.59;5166249;28;20028;-60
2022/04/19 07:06:30;;;;;;;19.30;16.65;;;;;;;-141.48;100.00;69781.59;5167630;28;20364;-60
2022/04/19 07:09:01;;;;;;;15.13;13.82;;;;;;;-141.48;100.00;69781.59;5168334;28;20519;-62
2022/04/19 07:11:31;;;;;;;15.15;13.73;;;;;;;-141.48;100.00;69781.59;5168168;28;20062;-61
2022/04/19 07:14:02;;;;;;;15.68;14.18;;;;;;;-141.48;100.00;69781.59;5184449;28;20021;-60
2022/04/19 07:16:33;;;;;;;15.82;14.43;;;;;;;-141.48;100.00;69781.59;5187410;28;20030;-59
2022/04/19 07:19:03;;;;;;;15.35;14.15;;;;;;;-141.48;100.00;69781.59;5171071;28;20033;-59
2022/04/19 07:27:21;;;;;;;35.55;15.65;;;;;;;-141.48;100.00;69781.59;5179743;28;20519;-59
2022/04/19 07:29:52;;;;;;;14.43;13.02;;;;;;;-141.48;100.00;69781.59;5170739;28;20030;-58
2022/04/19 07:32:22;;;;;;;14.90;13.45;;;;;;;-141.48;100.00;69781.59;5170267;28;20029;-60
2022/04/19 07:34:53;;;;;;;13.32;12.10;;;;;;;-141.48;100.00;69781.59;5186858;28;20030;-62
2022/04/19 07:37:24;;;;;;;14.68;13.43;;;;;;;-141.48;100.00;69781.59;5170630;28;20025;-58
2022/04/19 07:39:54;;;;;;;12.52;11.43;;;;;;;-141.48;100.00;69781.59;5170254;28;20026;-60
2022/04/19 07:42:25;;;;;;;14.43;13.13;;;;;;;-141.48;100.00;69781.59;5186721;28;20051;-58
2022/04/19 07:44:56;;;;;;;14.73;13.35;;;;;;;-141.48;100.00;69781.59;5169672;28;20032;-60
2022/04/19 07:47:27;;;;;;;16.55;12.73;;;;;;;-141.48;100.00;69781.59;5170373;28;20407;-61
2022/04/19 07:49:57;;;;;;;15.02;13.60;;;;;;;-141.48;100.00;69781.59;5186942;28;20030;-58
2022/04/19 07:52:28;;;;;;;17.88;13.40;;;;;;;-141.48;100.00;69781.59;5170148;28;20029;-60
2022/04/19 07:54:58;;;;;;;13.55;12.20;;;;;;;-141.48;100.00;69781.59;5186446;28;20085;-60
2022/04/19 07:57:29;;;;;;;13.57;12.27;;;;;;;-141.48;100.00;69781.59;5170253;28;20100;-60
2022/04/19 07:59:59;;;;;;;23.83;12.88;;;;;;;-141.48;100.00;69781.59;5186365;28;20026;-59
2022/04/19 08:02:30;;;;;;;11.13;10.25;;;;;;;-141.48;100.00;69781.59;5169913;28;20128;-61
2022/04/19 08:05:01;;;;;;;11.88;10.80;;;;;;;-141.48;100.00;69781.59;5169628;28;20506;-61
2022/04/19 08:07:32;;;;;;;12.25;10.98;;;;;;;-141.48;100.00;69781.59;5186083;28;20025;-61
2022/04/19 08:10:03;;;;;;;14.68;13.32;;;;;;;-141.48;100.00;69781.59;5169655;28;20088;-59
2022/04/19 08:12:34;;;;;;;12.63;11.40;;;;;;;-141.48;100.00;69781.59;5169835;28;20407;-60
2022/04/19 08:15:05;;;;;;;14.10;12.48;;;;;;;-141.48;100.00;69781.59;5185590;28;20077;-57
2022/04/19 08:17:37;;;;;;;12.77;9.95;;;;;;;-141.48;100.00;69781.59;5187328;28;20034;-58
2022/04/19 08:20:08;;;;;;;13.20;10.45;;;;;;;-141.48;100.00;69781.59;5169584;28;20029;-60
2022/04/19 08:22:38;;;;;;;10.98;9.82;;;;;;;-141.48;100.00;69781.59;5169398;28;20133;-58
2022/04/19 08:25:10;;;;;;;14.93;11.43;;;;;;;-141.48;100.00;69781.59;5184858;28;20053;-58
2022/04/19 08:27:45;;;;;;;13.52;12.27;;;;;;;-141.48;100.00;69781.59;5169268;28;20456;-59
2022/04/19 08:30:17;;;;;;;11.38;10.27;;;;;;;-141.48;100.00;69781.59;5169159;28;20033;-58
2022/04/19 08:32:47;;;;;;;13.18;11.23;;;;;;;-141.48;100.00;69781.59;5169410;28;20038;-57
2022/04/19 08:35:18;;;;;;;16.92;12.20;;;;;;;-141.48;100.00;69781.59;5169170;28;20026;-59
2022/04/19 08:37:49;;;;;;;10.20;9.27;;;;;;;-141.48;100.00;69781.59;5184698;28;20116;-59
2022/04/19 08:40:20;;;;;;;12.18;11.20;;;;;;;-141.48;100.00;69781.59;5189600;28;20104;-59
2022/04/19 08:42:51;;;;;;;15.05;11.25;;;;;;;-141.48;100.00;69781.59;5207250;28;20112;-60
2022/04/19 08:45:22;;;;;;;15.25;11.05;;;;;;;-141.48;100.00;69781.59;5189090;28;20026;-59
2022/04/19 08:47:53;;;;;;;11.27;10.27;;;;;;;-141.48;100.00;69781.59;5189155;28;20076;-61
2022/04/19 08:50:24;;;;;;;11.20;10.10;;;;;;;-141.48;100.00;69781.59;5205698;28;20049;-61
2022/04/19 08:58:32;;;;;;;12.83;11.50;;;;;;;-141.48;100.00;69781.59;5206999;28;20052;-58
2022/04/19 09:01:03;;;;;;;12.13;10.68;;;;;;;-141.48;100.00;69781.59;5205319;28;20029;-57
2022/04/19 09:03:34;;;;;;;12.68;11.57;;;;;;;-141.48;100.00;69781.59;5204314;28;20048;-57
2022/04/19 09:06:04;;;;;;;10.75;9.38;;;;;;;-141.48;100.00;69781.59;5222890;28;20032;-59
2022/04/19 09:08:35;;;;;;;10.98;9.65;;;;;;;-141.48;100.00;69781.59;5206031;28;20471;-58
2022/04/19 09:11:08;;;;;;;10.48;8.30;;;;;;;-141.48;100.00;69781.59;5206076;28;20029;-57
2022/04/19 09:13:38;;;;;;;10.00;9.13;;;;;;;-141.48;100.00;69781.59;5189284;28;20035;-61
2022/04/19 09:16:09;;;;;;;9.57;8.48;;;;;;;-141.48;100.00;69781.59;5189077;28;20029;-60
2022/04/19 09:18:40;;;;;;;7.75;7.07;;;;;;;-141.48;100.00;69781.59;5206428;28;20107;-58
2022/04/19 09:21:13;;;;;;;7.95;7.20;;;;;;;-141.48;100.00;69781.59;5206216;28;20032;-60
2022/04/19 09:23:53;;;;;;;7.18;5.57;;;;;;;-141.48;100.00;69781.59;5188599;28;20021;-59
2022/04/19 09:26:42;;;;;;;5.50;5.10;;;;;;;-141.48;100.00;69781.59;5189253;28;20025;-61
2022/04/19 09:29:21;;;;;;;5.57;4.95;;;;;;;-141.48;100.00;69781.59;5239573;22;20500;-80
2022/04/19 09:31:54;;;;;;;9.50;7.40;;;;;;;-141.48;100.00;69781.59;5243557;28;20098;-81
2022/04/19 09:34:29;;;;;;;8.20;6.43;;;;;;;-141.48;100.00;69781.59;5230187;28;20036;-80
2022/04/19 09:37:08;;;;;;;9.55;5.45;;;;;;;-141.48;100.00;69781.59;5207484;28;20021;-81
2022/04/19 09:39:40;;;;;;;7.07;6.57;;;;;;;-141.48;100.00;69781.59;5187749;28;20030;-80
2022/04/19 09:42:14;;;;;;;7.90;7.25;;;;;;;-141.48;100.00;69781.59;5169734;28;20090;-81
2022/04/19 09:44:51;;;;;;;6.65;5.55;;;;;;;-141.48;100.00;69781.59;5187884;28;20034;-82
2022/04/19 09:47:22;;;;;;;11.95;7.28;;;;;;;-141.48;100.00;69781.59;5188417;28;20046;-82
2022/04/19 09:49:53;;;;;;;6.30;5.90;;;;;;;-141.48;100.00;69781.59;5187768;28;20141;-81
2022/04/19 09:52:24;;;;;;;7.78;6.45;;;;;;;-141.48;100.00;69781.59;5171061;28;20033;-82
2022/04/19 09:55:08;;;;;;;7.65;6.90;;;;;;;-141.48;100.00;69781.59;5188797;28;20037;-83
2022/04/19 09:57:39;;;;;;;8.50;7.60;;;;;;;-141.48;100.00;69781.59;5189704;28;20216;-82
2022/04/19 10:00:12;;;;;;;6.82;6.22;;;;;;;-141.48;100.00;69781.59;5189309;28;20025;-82
2022/04/19 10:08:23;;;;;;;7.22;6.50;;;;;;;-141.48;100.00;69781.59;5189906;28;20109;-81
2022/04/19 10:10:56;;;;;;;13.13;7.93;;;;;;;-141.48;100.00;69781.59;5171992;28;20022;-82
2022/04/19 10:13:28;;;;;;;7.22;6.70;;;;;;;-141.48;100.00;69781.59;5189110;28;20030;-83
2022/04/19 10:15:59;;;;;;;13.05;8.10;;;;;;;-141.48;100.00;69781.59;5188393;28;20033;-84
2022/04/19 10:18:29;;;;;;;7.88;7.20;;;;;;;-141.48;100.00;69781.59;5170247;28;20447;-81
2022/04/19 10:21:02;;;;;;;7.65;6.88;;;;;;;-141.48;100.00;69781.59;5187016;28;20045;-82
2022/04/19 10:23:38;;;;;;;9.27;6.95;;;;;;;-141.48;100.00;69781.59;5168900;28;20461;-82
2022/04/19 10:26:14;;;;;;;7.25;6.75;;;;;;;-141.48;100.00;69781.59;5186941;28;20390;-82
2022/04/19 10:28:51;;;;;;;5.60;5.10;;;;;;;-141.48;100.00;69781.59;5187457;28;20034;-81
2022/04/19 10:31:35;;;;;;;7.40;4.72;;;;;;;-141.48;100.00;69781.59;5187715;28;20561;-82
2022/04/19 10:34:05;;;;;;;5.93;5.45;;;;;;;-141.48;100.00;69781.59;5170079;28;20034;-82
2022/04/19 10:36:37;;;;;;;6.45;5.85;;;;;;;-141.48;100.00;69781.59;5171210;28;20115;-82
2022/04/19 10:39:11;;;;;;;7.68;6.97;;;;;;;-141.48;100.00;69781.59;5186695;28;20025;-82
2022/04/19 10:41:48;;;;;;;13.10;6.78;;;;;;;-141.48;100.00;69781.59;5186707;28;20030;-81
2022/04/19 10:44:41;;;;;;;8.82;7.60;;;;;;;-141.48;100.00;69781.59;5186530;28;20489;-82
2022/04/19 10:47:14;;;;;;;7.72;6.97;;;;;;;-141.48;100.00;69781.59;5186469;28;20053;-82
2022/04/19 10:50:04;;;;;;;6.22;5.82;;;;;;;-141.48;100.00;69781.59;5169301;28;20033;-86
2022/04/19 10:52:40;;;;;;;6.80;5.85;;;;;;;-141.48;100.00;69781.59;5186029;28;20036;-81
2022/04/19 10:55:17;;;;;;;5.55;5.07;;;;;;;-141.48;100.00;69781.59;5185151;28;20053;-81
2022/04/19 11:00:42;;;;;;;6.17;5.67;;;;;;;-141.48;100.00;69781.59;5185919;28;20037;-80
2022/04/19 11:03:29;;;;;;;7.57;6.88;;;;;;;-141.48;100.00;69781.59;5185298;28;20357;-80
2022/04/19 11:06:02;;;;;;;5.80;5.30;;;;;;;-141.48;100.00;69781.59;5185693;28;20033;-80
2022/04/19 11:08:38;;;;;;;5.10;4.70;;;;;;;-141.48;100.00;69781.59;5185625;28;20068;-79
2022/04/19 11:11:20;;;;;;;11.32;7.43;;;;;;;-141.48;100.00;69781.59;5184994;28;20038;-79
2022/04/19 11:14:26;;;;;;;6.93;6.32;;;;;;;-141.48;100.00;69781.59;5186607;28;20049;-82
2022/04/19 11:17:22;;;;;;;5.75;5.25;;;;;;;-141.48;100.00;69781.59;5185965;28;20034;-80
2022/04/19 11:20:17;;;;;;;13.02;5.72;;;;;;;-141.48;100.00;69781.59;5170142;28;20250;-83
2022/04/19 11:22:51;;;;;;;5.00;4.68;;;;;;;-141.48;100.00;69781.59;5193468;28;20057;-82
2022/04/19 11:25:37;;;;;;;6.45;5.97;;;;;;;-141.48;100.00;69781.59;5174682;28;20057;-81
2022/04/19 11:28:11;;;;;;;6.20;5.15;;;;;;;-141.48;100.00;69781.59;5185807;28;20034;-81
2022/04/19 11:30:55;;;;;;;5.43;5.03;;;;;;;-141.48;100.00;69781.59;5204983;28;20036;-81
2022/04/19 11:33:28;;;;;;;9.95;6.70;;;;;;;-141.48;100.00;69781.59;5186306;28;20030;-81
2022/04/19 11:36:19;;;;;;;7.05;6.43;;;;;;;-141.48;100.00;69781.59;5207504;28;20116;-82
2022/04/19 11:38:50;;;;;;;6.78;6.20;;;;;;;-141.48;100.00;69781.59;5174243;28;20088;-81
2022/04/19 11:46:55;;;;;;;7.70;7.03;;;;;;;-141.48;100.00;69781.59;5188747;28;20030;-82
2022/04/19 11:49:27;;;;;;;6.32;5.43;;;;;;;-141.48;100.00;69781.59;5188668;28;20164;-82
2022/04/19 11:52:00;;;;;;;6.43;5.82;;;;;;;-141.48;100.00;69781.59;5187944;28;20033;-82
2022/04/19 11:54:32;;;;;;;7.75;6.75;;;;;;;-141.48;100.00;69781.59;5187870;28;20032;-82
2022/04/19 11:57:08;;;;;;;6.05;5.50;;;;;;;-141.48;100.00;69781.59;5188204;28;20030;-82
2022/04/19 11:59:40;;;;;;;8.70;6.38;;;;;;;-141.48;100.00;69781.59;5188195;28;20029;-82
2022/04/19 12:02:17;;;;;;;5.75;5.25;;;;;;;-141.48;100.00;69781.59;5190735;28;20089;-81
2022/04/19 12:04:55;;;;;;;6.53;6.03;;;;;;;-141.48;100.00;69781.59;5172905;28;20099;-81
2022/04/19 12:07:25;;;;;;;7.57;6.85;;;;;;;-141.48;100.00;69781.59;5191076;28;20466;-80
2022/04/19 12:09:58;;;;;;;7.43;6.75;;;;;;;-141.48;100.00;69781.59;5190583;28;20064;-81